Time;durP1;ratioP1;P1;durP2;ratioP2;P2;SDS_P1;SDS_P2;PMS_P1;PMS_P2;Temp;Humidity;BMP_temperature;BMP_pressure;BME280_temperature;BME280_humidity;BME280_pressure;Samples;Min_cycle;Max_cycle;Signal;HPM_P1;HPM_P2
2022/03/15 00:02:01;;;;;;;65.87;35.23;;;4.40;99.90;;;;;;5063041;28;20250;-90
2022/03/15 00:04:50;;;;;;;65.77;36.03;;;4.40;99.90;;;;;;5074995;28;20360;-90
2022/03/15 00:07:40;;;;;;;68.50;36.40;;;4.40;99.90;;;;;;5060451;28;20371;-89
2022/03/15 00:10:29;;;;;;;72.57;37.07;;;4.30;99.90;;;;;;5084842;28;20326;-89
2022/03/15 00:13:20;;;;;;;66.50;35.73;;;4.30;99.90;;;;;;5059703;28;20307;-90
2022/03/15 00:16:10;;;;;;;67.17;34.83;;;4.30;99.90;;;;;;5059278;28;20945;-91
2022/03/15 00:19:03;;;;;;;67.83;36.50;;;4.30;99.90;;;;;;5058239;28;20308;-92
2022/03/15 00:21:53;;;;;;;63.23;35.83;;;4.10;99.90;;;;;;5061640;28;20324;-90
2022/03/15 00:24:42;;;;;;;72.77;35.90;;;4.10;99.90;;;;;;5057540;28;20303;-88
2022/03/15 00:27:31;;;;;;;69.63;36.63;;;4.10;99.90;;;;;;5052768;28;20217;-88
2022/03/15 00:30:22;;;;;;;68.63;35.87;;;4.10;99.90;;;;;;5072889;28;20244;-88
2022/03/15 00:33:13;;;;;;;68.40;35.97;;;4.10;99.90;;;;;;5067356;28;20226;-90
2022/03/15 00:36:03;;;;;;;63.60;35.93;;;4.00;99.90;;;;;;5059233;28;20547;-89
2022/03/15 00:38:52;;;;;;;66.17;34.80;;;4.00;99.90;;;;;;5066193;28;20381;-92
2022/03/15 00:41:41;;;;;;;69.33;36.10;;;4.00;99.90;;;;;;5087629;28;20227;-90
2022/03/15 00:44:30;;;;;;;66.53;36.70;;;4.00;99.90;;;;;;5060269;28;20574;-89
2022/03/15 00:47:19;;;;;;;71.93;36.53;;;3.80;99.90;;;;;;5060013;28;20233;-88
2022/03/15 00:50:09;;;;;;;67.87;37.47;;;3.90;99.90;;;;;;5058604;28;20669;-90
2022/03/15 00:53:00;;;;;;;65.43;36.07;;;3.90;99.90;;;;;;5068464;28;20256;-89
2022/03/15 00:55:48;;;;;;;64.27;36.83;;;3.90;99.90;;;;;;5055403;28;20317;-89
2022/03/15 00:58:37;;;;;;;67.23;36.63;;;3.90;99.90;;;;;;5051453;28;20839;-90
2022/03/15 01:01:30;;;;;;;68.47;34.93;;;3.80;99.90;;;;;;5062661;28;20224;-88
2022/03/15 01:04:19;;;;;;;65.13;36.07;;;3.90;99.90;;;;;;5054706;28;20267;-88
2022/03/15 01:07:08;;;;;;;68.33;36.57;;;3.80;99.90;;;;;;5053206;28;20220;-88
2022/03/15 01:09:59;;;;;;;67.37;35.80;;;3.80;99.90;;;;;;5060784;28;20657;-89
2022/03/15 01:12:48;;;;;;;72.17;36.60;;;3.90;99.90;;;;;;5061023;28;20224;-80
2022/03/15 01:15:43;;;;;;;70.67;37.40;;;3.80;99.90;;;;;;5043518;28;20224;-82
2022/03/15 01:18:33;;;;;;;66.67;35.50;;;3.80;99.90;;;;;;5053751;28;20215;-89
2022/03/15 01:21:22;;;;;;;64.90;35.73;;;3.80;99.90;;;;;;5072413;28;20228;-89
2022/03/15 01:24:12;;;;;;;67.60;36.53;;;3.80;99.90;;;;;;5068754;28;20226;-91
2022/03/15 01:27:03;;;;;;;65.77;35.90;;;3.90;99.90;;;;;;5089704;28;20216;-89
2022/03/15 01:29:54;;;;;;;67.37;36.40;;;3.90;99.90;;;;;;5067037;28;20274;-90
2022/03/15 01:32:43;;;;;;;62.73;35.43;;;4.00;99.90;;;;;;5090631;28;20233;-90
2022/03/15 01:35:36;;;;;;;63.90;36.03;;;3.80;99.90;;;;;;5071385;28;20251;-90
2022/03/15 01:38:25;;;;;;;67.83;35.03;;;3.80;99.90;;;;;;5082644;28;20223;-89
2022/03/15 01:41:15;;;;;;;62.57;34.43;;;3.90;99.90;;;;;;5076432;28;20355;-91
2022/03/15 01:44:18;;;;;;;63.17;34.27;;;3.90;99.90;;;;;;5100261;28;20676;-90
2022/03/15 01:47:07;;;;;;;66.10;35.33;;;3.90;99.90;;;;;;5075459;28;20292;-89
2022/03/15 01:49:56;;;;;;;64.03;35.60;;;3.90;99.90;;;;;;5091350;28;20226;-89
2022/03/15 01:52:45;;;;;;;69.67;36.67;;;3.90;99.90;;;;;;5090454;28;20232;-90
2022/03/15 01:55:35;;;;;;;68.40;35.33;;;3.80;99.90;;;;;;5091370;28;20226;-91
2022/03/15 01:58:25;;;;;;;66.70;35.87;;;3.80;99.90;;;;;;5086307;28;20227;-90
2022/03/15 02:01:15;;;;;;;62.23;35.60;;;3.80;99.90;;;;;;5089695;28;20223;-92
2022/03/15 02:04:05;;;;;;;70.07;35.93;;;3.90;99.90;;;;;;5090864;28;20262;-91
2022/03/15 02:07:03;;;;;;;65.23;37.00;;;3.90;99.90;;;;;;5071921;28;20248;-90
2022/03/15 02:09:52;;;;;;;69.43;35.63;;;3.80;99.90;;;;;;5088206;28;20295;-91
2022/03/15 02:12:42;;;;;;;67.63;35.23;;;3.90;99.90;;;;;;5076199;28;20216;-90
2022/03/15 02:15:31;;;;;;;70.83;37.00;;;3.90;99.90;;;;;;5094796;28;20293;-91
2022/03/15 02:18:25;;;;;;;71.53;35.37;;;3.90;99.90;;;;;;5066696;28;20293;-89
2022/03/15 02:21:16;;;;;;;64.87;35.53;;;4.00;99.90;;;;;;5073475;28;20242;-91
2022/03/15 02:24:06;;;;;;;65.50;36.80;;;3.90;99.90;;;;;;5069188;28;20224;-91
2022/03/15 02:26:56;;;;;;;75.67;38.23;;;3.90;99.90;;;;;;5085531;28;20284;-91
2022/03/15 02:29:45;;;;;;;74.80;38.53;;;3.90;99.90;;;;;;5073196;28;20285;-80
2022/03/15 02:32:35;;;;;;;65.13;34.87;;;3.90;99.90;;;;;;5084557;28;24818;-91
2022/03/15 02:35:24;;;;;;;71.33;36.63;;;3.90;99.90;;;;;;5085772;28;20534;-92
2022/03/15 02:38:15;;;;;;;69.60;37.40;;;3.90;99.90;;;;;;5086048;28;20216;-92
2022/03/15 02:41:04;;;;;;;67.10;36.67;;;3.90;99.90;;;;;;5082102;28;20424;-90
2022/03/15 02:43:53;;;;;;;68.43;36.10;;;3.90;99.90;;;;;;5078944;28;20220;-90
2022/03/15 02:46:43;;;;;;;64.70;36.87;;;3.80;99.90;;;;;;5086857;28;20264;-91
2022/03/15 02:49:32;;;;;;;68.10;36.77;;;3.90;99.90;;;;;;5085960;28;20233;-91
2022/03/15 02:52:21;;;;;;;68.43;36.50;;;3.80;99.90;;;;;;5061006;28;20888;-91
2022/03/15 02:55:13;;;;;;;76.23;37.80;;;3.80;99.90;;;;;;5071515;28;20230;-90
2022/03/15 02:58:02;;;;;;;65.63;37.27;;;3.80;99.90;;;;;;5075155;28;20216;-89
2022/03/15 03:00:51;;;;;;;62.13;35.07;;;3.80;99.90;;;;;;5084808;28;20334;-90
2022/03/15 03:03:40;;;;;;;66.97;38.00;;;3.80;99.90;;;;;;5072324;28;20246;-89
2022/03/15 03:06:30;;;;;;;73.37;39.17;;;3.80;99.90;;;;;;5071523;28;20232;-89
2022/03/15 03:09:18;;;;;;;67.83;37.47;;;3.80;99.90;;;;;;5070337;28;20228;-89
2022/03/15 03:12:10;;;;;;;72.67;37.60;;;3.70;99.90;;;;;;5095902;28;20247;-89
2022/03/15 03:15:05;;;;;;;70.10;35.40;;;3.70;99.90;;;;;;5096592;28;20232;-89
2022/03/15 03:17:54;;;;;;;67.27;36.53;;;3.70;99.90;;;;;;5076317;28;20228;-91
2022/03/15 03:20:43;;;;;;;72.00;35.10;;;3.70;99.90;;;;;;5081110;28;20224;-90
2022/03/15 03:23:34;;;;;;;73.23;37.70;;;3.80;99.90;;;;;;5063372;28;20220;-90
2022/03/15 03:26:23;;;;;;;69.30;37.27;;;3.60;99.90;;;;;;5070646;28;20422;-89
2022/03/15 03:29:14;;;;;;;71.60;37.73;;;3.60;99.90;;;;;;5073723;28;20225;-91
2022/03/15 03:32:03;;;;;;;66.73;37.27;;;3.60;99.90;;;;;;5066633;28;20205;-91
2022/03/15 03:34:52;;;;;;;74.47;38.40;;;3.60;99.90;;;;;;5078000;28;20198;-90
2022/03/15 03:37:41;;;;;;;68.67;37.50;;;3.40;99.90;;;;;;5080729;28;20231;-92
2022/03/15 03:40:31;;;;;;;70.30;37.67;;;3.40;99.90;;;;;;5077544;28;20257;-90
2022/03/15 03:43:20;;;;;;;69.90;38.03;;;3.50;99.90;;;;;;5091820;28;20233;-87
2022/03/15 03:46:10;;;;;;;68.33;37.10;;;3.50;99.90;;;;;;5080196;28;20224;-89
2022/03/15 03:49:01;;;;;;;69.57;38.87;;;3.50;99.90;;;;;;5076328;28;20299;-90
2022/03/15 03:51:50;;;;;;;78.87;37.47;;;3.40;99.90;;;;;;5052205;28;20229;-90
2022/03/15 03:54:39;;;;;;;69.53;37.50;;;3.40;99.90;;;;;;5057999;28;20676;-91
2022/03/15 03:57:29;;;;;;;70.67;38.70;;;3.40;99.90;;;;;;5066038;28;20660;-89
2022/03/15 04:00:18;;;;;;;80.23;40.47;;;3.50;99.90;;;;;;5059088;28;20230;-91
2022/03/15 04:03:13;;;;;;;70.10;39.30;;;3.40;99.90;;;;;;5053278;28;20224;-90
2022/03/15 04:06:03;;;;;;;81.70;38.83;;;3.40;99.90;;;;;;5060127;28;20212;-91
2022/03/15 04:08:56;;;;;;;70.37;39.00;;;3.40;99.90;;;;;;5105678;28;20227;-92
2022/03/15 04:11:45;;;;;;;74.27;39.53;;;3.30;99.90;;;;;;5060640;28;20224;-90
2022/03/15 04:14:36;;;;;;;74.17;39.30;;;3.30;99.90;;;;;;5064291;28;20216;-91
2022/03/15 04:17:26;;;;;;;77.10;40.90;;;3.20;99.90;;;;;;5058280;28;20247;-91
2022/03/15 04:20:20;;;;;;;73.30;37.87;;;3.10;99.90;;;;;;5061762;28;20223;-91
2022/03/15 04:23:10;;;;;;;70.67;37.97;;;3.10;99.90;;;;;;5055144;28;20236;-90
2022/03/15 04:25:59;;;;;;;75.50;37.30;;;3.20;99.90;;;;;;5055509;28;20305;-91
2022/03/15 04:28:48;;;;;;;74.27;38.63;;;3.20;99.90;;;;;;5049721;28;20340;-91
2022/03/15 04:31:37;;;;;;;71.00;38.43;;;3.30;99.90;;;;;;5057712;28;20322;-91
2022/03/15 04:34:28;;;;;;;72.10;36.20;;;3.20;99.90;;;;;;5057169;28;20724;-91
2022/03/15 04:37:19;;;;;;;76.87;40.10;;;3.10;99.90;;;;;;5063754;28;20306;-83
2022/03/15 04:40:10;;;;;;;75.97;38.90;;;3.20;99.90;;;;;;5065177;28;20269;-81
2022/03/15 04:43:03;;;;;;;68.30;39.30;;;3.20;99.90;;;;;;5062363;28;20300;-81
2022/03/15 04:45:52;;;;;;;78.23;39.50;;;3.20;99.90;;;;;;5062434;28;20223;-81
2022/03/15 04:48:42;;;;;;;71.77;37.60;;;3.10;99.90;;;;;;5048720;28;20338;-82
2022/03/15 04:51:31;;;;;;;76.77;38.97;;;3.20;99.90;;;;;;5058563;28;20332;-90
2022/03/15 04:54:22;;;;;;;76.97;38.87;;;3.20;99.90;;;;;;5055871;28;20284;-89
2022/03/15 04:57:11;;;;;;;81.77;38.33;;;3.20;99.90;;;;;;5083681;28;20226;-90
2022/03/15 05:00:01;;;;;;;72.30;36.53;;;3.20;99.90;;;;;;5063640;28;20315;-91
2022/03/15 05:02:50;;;;;;;68.27;37.00;;;3.20;99.90;;;;;;5055238;28;20695;-91
2022/03/15 05:05:40;;;;;;;71.50;37.70;;;3.30;99.90;;;;;;5069473;28;20295;-91
2022/03/15 05:08:29;;;;;;;69.20;35.83;;;3.30;99.90;;;;;;5050494;28;20786;-90
2022/03/15 05:11:22;;;;;;;77.33;38.40;;;3.20;99.90;;;;;;5057953;28;20255;-81
2022/03/15 05:14:16;;;;;;;70.77;37.10;;;3.30;99.90;;;;;;5044820;28;20224;-83
2022/03/15 05:17:05;;;;;;;80.80;37.03;;;3.30;99.90;;;;;;5051268;28;20575;-92
2022/03/15 05:19:57;;;;;;;72.10;37.17;;;3.30;99.90;;;;;;5045117;28;20224;-91
2022/03/15 05:22:47;;;;;;;73.07;37.47;;;3.30;99.90;;;;;;5045918;28;20251;-96
2022/03/15 05:25:37;;;;;;;70.53;36.00;;;3.40;99.90;;;;;;5054372;28;20236;-94
2022/03/15 05:28:28;;;;;;;66.20;35.43;;;3.40;99.90;;;;;;5061187;28;20220;-89
2022/03/15 05:31:19;;;;;;;63.83;35.13;;;3.40;99.90;;;;;;5045102;28;20224;-81
2022/03/15 05:34:13;;;;;;;75.90;36.50;;;3.50;99.90;;;;;;5051708;28;20217;-89
2022/03/15 05:37:02;;;;;;;66.37;36.20;;;3.50;99.90;;;;;;5058836;28;20327;-88
2022/03/15 05:39:51;;;;;;;66.33;37.40;;;3.50;99.90;;;;;;5057419;28;20276;-89
2022/03/15 05:42:40;;;;;;;73.60;38.27;;;3.50;99.90;;;;;;5065644;28;20231;-90
2022/03/15 05:45:31;;;;;;;71.33;37.53;;;3.50;99.90;;;;;;5056805;28;20235;-89
2022/03/15 05:48:21;;;;;;;78.77;41.23;;;3.50;99.90;;;;;;5054821;28;20216;-89
2022/03/15 05:51:10;;;;;;;81.10;40.27;;;3.60;99.90;;;;;;5050662;28;20735;-89
2022/03/15 05:53:59;;;;;;;77.00;39.27;;;3.60;99.90;;;;;;5060751;28;20220;-82
2022/03/15 05:56:48;;;;;;;86.97;39.93;;;3.70;99.90;;;;;;5046560;28;20285;-82
2022/03/15 05:59:37;;;;;;;80.47;38.60;;;3.70;99.90;;;;;;5052636;28;20540;-82
2022/03/15 06:02:27;;;;;;;82.57;41.47;;;3.70;99.90;;;;;;5051061;28;20216;-83
2022/03/15 06:05:16;;;;;;;79.10;40.33;;;3.80;99.90;;;;;;5047055;28;20232;-82
2022/03/15 06:08:06;;;;;;;75.00;38.23;;;3.90;99.90;;;;;;5051869;28;20231;-82
2022/03/15 06:10:57;;;;;;;78.67;38.17;;;3.90;99.90;;;;;;5060909;28;20285;-81
2022/03/15 06:13:47;;;;;;;75.77;38.23;;;3.90;99.90;;;;;;5046251;28;20256;-82
2022/03/15 06:16:36;;;;;;;75.93;37.20;;;4.00;99.90;;;;;;5050713;28;20238;-82
2022/03/15 06:19:27;;;;;;;71.47;36.70;;;4.10;99.90;;;;;;5060347;28;20232;-91
2022/03/15 06:22:17;;;;;;;70.43;37.70;;;4.10;99.90;;;;;;5060416;28;20407;-91
2022/03/15 06:25:07;;;;;;;70.00;35.63;;;4.10;99.90;;;;;;5076541;28;20206;-91
2022/03/15 06:28:02;;;;;;;69.73;36.87;;;4.20;99.90;;;;;;5063183;28;20435;-90
2022/03/15 06:30:52;;;;;;;68.77;36.50;;;4.30;99.90;;;;;;5059515;28;20292;-92
2022/03/15 06:33:42;;;;;;;64.67;35.03;;;4.50;99.90;;;;;;5084632;28;20230;-90
2022/03/15 06:36:34;;;;;;;61.13;33.23;;;4.70;99.90;;;;;;5070458;28;20232;-93
2022/03/15 06:39:22;;;;;;;62.77;30.40;;;4.80;99.90;;;;;;5065326;28;20597;-81
2022/03/15 06:42:12;;;;;;;68.93;29.37;;;5.10;99.90;;;;;;5059756;28;20217;-85
2022/03/15 06:45:01;;;;;;;59.87;31.20;;;5.20;99.90;;;;;;5059828;28;20677;-84
2022/03/15 06:47:50;;;;;;;69.20;31.50;;;5.20;99.90;;;;;;5064325;28;20256;-84
2022/03/15 06:50:40;;;;;;;61.23;30.77;;;5.20;99.90;;;;;;5062764;28;20376;-83
2022/03/15 06:53:30;;;;;;;56.33;28.97;;;5.30;99.90;;;;;;5073170;28;20280;-83
2022/03/15 06:56:19;;;;;;;56.77;29.30;;;5.50;99.90;;;;;;5062571;28;20218;-84
2022/03/15 06:59:08;;;;;;;53.50;28.97;;;5.50;99.90;;;;;;5044676;28;20227;-84
2022/03/15 07:01:58;;;;;;;53.00;28.67;;;5.60;99.90;;;;;;5058438;28;20242;-84
2022/03/15 07:04:47;;;;;;;50.40;28.07;;;5.70;99.90;;;;;;5058114;28;20271;-84
2022/03/15 07:07:41;;;;;;;48.90;27.27;;;5.80;99.90;;;;;;5059718;28;20274;-83
2022/03/15 07:10:32;;;;;;;55.50;28.60;;;5.90;99.90;;;;;;5057922;28;20243;-85
2022/03/15 07:13:21;;;;;;;53.60;28.33;;;5.90;99.90;;;;;;5054980;28;20366;-84
2022/03/15 07:16:10;;;;;;;51.93;27.57;;;6.00;99.90;;;;;;5069961;28;20314;-84
2022/03/15 07:18:59;;;;;;;49.90;29.60;;;6.20;99.90;;;;;;5058856;28;20224;-83
2022/03/15 07:21:49;;;;;;;60.30;29.43;;;6.20;99.90;;;;;;5062547;28;20575;-90
2022/03/15 07:24:39;;;;;;;53.97;28.53;;;6.30;99.90;;;;;;5061874;28;20244;-86
2022/03/15 07:27:30;;;;;;;54.20;28.87;;;6.40;99.90;;;;;;5069058;28;20216;-87
2022/03/15 07:30:19;;;;;;;59.30;28.33;;;6.60;99.90;;;;;;5055211;28;20228;-85
2022/03/15 07:33:08;;;;;;;52.57;28.50;;;6.60;99.90;;;;;;5066511;28;20694;-86
2022/03/15 07:36:00;;;;;;;53.03;26.37;;;6.70;99.90;;;;;;5073789;28;20216;-86
2022/03/15 07:38:51;;;;;;;48.70;23.63;;;6.80;99.90;;;;;;5064741;28;20216;-85
2022/03/15 07:41:40;;;;;;;39.03;21.90;;;7.00;99.90;;;;;;5073565;28;20252;-87
2022/03/15 07:44:30;;;;;;;37.00;20.87;;;7.10;99.90;;;;;;5072398;28;20236;-85
2022/03/15 07:47:19;;;;;;;39.17;21.07;;;7.30;99.90;;;;;;5073665;28;20599;-84
2022/03/15 07:50:09;;;;;;;33.00;20.80;;;7.40;99.90;;;;;;5078060;28;20225;-86
2022/03/15 07:52:58;;;;;;;33.83;20.30;;;7.50;99.90;;;;;;5079326;28;20227;-85
2022/03/15 07:55:47;;;;;;;34.07;20.40;;;7.70;99.90;;;;;;5061105;28;20227;-87
2022/03/15 07:58:36;;;;;;;33.03;19.53;;;8.00;99.90;;;;;;5078737;28;20243;-87
2022/03/15 08:01:27;;;;;;;33.33;20.47;;;8.00;99.90;;;;;;5069294;28;20291;-87
2022/03/15 08:04:19;;;;;;;34.53;20.47;;;8.00;99.90;;;;;;5062437;28;20309;-87
2022/03/15 08:07:08;;;;;;;33.37;20.50;;;8.00;99.90;;;;;;5061497;28;20239;-86
2022/03/15 08:09:57;;;;;;;32.90;19.97;;;10.40;99.90;;;;;;5055174;28;20570;-87
2022/03/15 08:12:45;;;;;;;29.70;18.50;;;13.60;91.70;;;;;;5059802;28;20241;-88
2022/03/15 08:15:34;;;;;;;37.90;18.85;;;14.60;81.20;;;;;;5057801;28;20259;-87
2022/03/15 08:18:25;;;;;;;29.75;19.58;;;14.20;77.30;;;;;;5072636;28;20234;-87
2022/03/15 08:21:14;;;;;;;31.50;19.55;;;11.80;87.30;;;;;;5056288;28;20239;-87
2022/03/15 08:24:03;;;;;;;26.88;18.45;;;11.20;95.60;;;;;;5052257;28;20715;-87
2022/03/15 08:26:52;;;;;;;33.05;19.77;;;11.10;99.90;;;;;;5057235;28;20224;-86
2022/03/15 08:29:41;;;;;;;33.63;19.43;;;10.80;99.90;;;;;;5070680;28;20329;-86
2022/03/15 08:32:31;;;;;;;28.98;19.58;;;10.50;99.90;;;;;;5057159;28;20221;-87
2022/03/15 08:35:22;;;;;;;31.13;19.93;;;10.50;99.90;;;;;;5051274;28;20220;-86
2022/03/15 08:38:12;;;;;;;34.22;19.15;;;10.30;99.90;;;;;;5053779;28;20334;-86
2022/03/15 08:41:01;;;;;;;27.60;19.02;;;10.50;99.90;;;;;;5070610;28;20982;-86
2022/03/15 08:43:50;;;;;;;29.07;18.93;;;10.50;99.90;;;;;;5059014;28;20575;-86
2022/03/15 08:46:39;;;;;;;26.80;18.85;;;10.60;99.90;;;;;;5071463;28;20677;-86
2022/03/15 08:49:33;;;;;;;28.27;18.90;;;10.70;99.90;;;;;;5054922;28;20326;-86
2022/03/15 08:52:24;;;;;;;30.70;19.10;;;11.00;99.90;;;;;;5067253;28;20242;-86
2022/03/15 08:55:13;;;;;;;32.60;18.98;;;11.00;99.90;;;;;;5057238;28;20242;-87
2022/03/15 08:58:02;;;;;;;34.88;18.55;;;11.00;99.90;;;;;;5069566;28;20224;-85
2022/03/15 09:00:52;;;;;;;32.88;18.55;;;11.50;99.90;;;;;;5071412;28;20212;-84
2022/03/15 09:03:41;;;;;;;27.75;18.05;;;12.60;99.90;;;;;;5066326;28;20275;-85
2022/03/15 09:06:31;;;;;;;26.08;17.38;;;13.40;91.60;;;;;;5064123;28;20197;-85
2022/03/15 09:09:25;;;;;;;27.85;18.23;;;14.20;84.80;;;;;;5060014;28;20303;-86
2022/03/15 09:12:17;;;;;;;29.27;17.95;;;13.80;85.40;;;;;;5058566;28;20216;-85
2022/03/15 09:15:10;;;;;;;25.85;18.05;;;14.20;85.20;;;;;;5060929;28;20296;-87
2022/03/15 09:18:03;;;;;;;27.25;17.70;;;14.50;84.00;;;;;;5061644;28;20220;-87
2022/03/15 09:20:53;;;;;;;26.42;18.10;;;13.80;85.20;;;;;;5054698;28;20266;-86
2022/03/15 09:23:42;;;;;;;18.67;12.63;;;13.00;91.00;;;;;;5067389;28;20704;-87
2022/03/15 09:26:33;;;;;;;22.60;15.15;;;12.40;97.70;;;;;;5059937;28;20228;-86
2022/03/15 09:29:22;;;;;;;20.80;14.55;;;12.10;99.90;;;;;;5055193;28;20275;-87
2022/03/15 09:32:12;;;;;;;17.13;13.13;;;12.40;99.90;;;;;;5090643;28;20362;-86
2022/03/15 09:35:02;;;;;;;20.20;14.23;;;12.30;99.90;;;;;;5050353;28;20380;-86
2022/03/15 09:37:51;;;;;;;19.63;14.23;;;11.90;99.90;;;;;;5056862;28;20224;-87
2022/03/15 09:40:41;;;;;;;18.40;13.60;;;11.80;99.90;;;;;;5056840;28;20220;-88
2022/03/15 09:43:36;;;;;;;21.40;15.32;;;11.40;99.90;;;;;;5054445;28;20220;-86
2022/03/15 09:46:27;;;;;;;22.80;14.30;;;11.20;99.90;;;;;;5085547;28;20228;-86
2022/03/15 09:49:37;;;;;;;23.75;15.02;;;11.10;99.90;;;;;;5052284;28;20312;-88
2022/03/15 09:52:29;;;;;;;21.73;14.00;;;11.20;99.90;;;;;;5060886;28;20238;-86
2022/03/15 09:55:18;;;;;;;23.48;16.10;;;11.40;99.90;;;;;;5055091;28;20236;-87
2022/03/15 09:58:07;;;;;;;22.58;16.27;;;11.40;99.90;;;;;;5071662;28;20262;-86
2022/03/15 10:00:58;;;;;;;25.25;15.63;;;11.50;99.90;;;;;;5059359;28;20212;-87
2022/03/15 10:03:48;;;;;;;23.20;16.30;;;11.30;99.90;;;;;;5073324;28;20293;-87
2022/03/15 10:06:37;;;;;;;21.83;15.55;;;11.30;99.90;;;;;;5058550;28;20263;-86
2022/03/15 10:09:26;;;;;;;24.27;15.25;;;11.20;99.90;;;;;;5067544;28;20216;-85
2022/03/15 10:12:17;;;;;;;23.45;15.93;;;11.10;99.90;;;;;;5055825;28;20296;-85
2022/03/15 10:15:16;;;;;;;25.27;15.88;;;11.20;99.90;;;;;;5055111;28;20306;-87
2022/03/15 10:18:07;;;;;;;22.38;15.93;;;11.10;99.90;;;;;;5051753;28;20239;-87
2022/03/15 10:20:57;;;;;;;23.85;16.45;;;11.10;99.90;;;;;;5068840;28;20231;-88
2022/03/15 10:23:46;;;;;;;25.55;16.23;;;11.00;99.90;;;;;;5079449;28;20224;-87
2022/03/15 10:26:38;;;;;;;29.88;20.48;;;11.00;99.90;;;;;;5095858;28;20353;-88
2022/03/15 10:29:31;;;;;;;22.25;16.30;;;11.10;99.90;;;;;;5085716;28;20256;-86
2022/03/15 10:32:20;;;;;;;22.35;16.35;;;11.30;99.90;;;;;;5079837;28;20230;-87
2022/03/15 10:35:12;;;;;;;21.38;15.88;;;11.00;99.90;;;;;;5079959;28;20227;-85
2022/03/15 10:38:01;;;;;;;24.13;16.70;;;11.20;99.90;;;;;;5080264;28;20216;-87
2022/03/15 10:40:53;;;;;;;31.02;16.67;;;11.30;99.90;;;;;;5082419;28;20322;-84
2022/03/15 10:43:42;;;;;;;24.02;16.60;;;11.50;99.90;;;;;;5087482;28;20228;-84
2022/03/15 10:46:31;;;;;;;23.42;15.65;;;11.50;99.90;;;;;;5078375;28;20219;-83
2022/03/15 10:49:20;;;;;;;28.48;16.23;;;11.50;99.90;;;;;;5097906;28;20227;-84
2022/03/15 10:52:11;;;;;;;24.38;17.05;;;11.70;99.90;;;;;;5081623;28;20246;-86
2022/03/15 10:55:12;;;;;;;26.10;17.23;;;11.60;99.90;;;;;;5095050;28;20223;-87
2022/03/15 10:58:05;;;;;;;24.02;16.63;;;11.80;99.90;;;;;;5092668;28;20223;-87
2022/03/15 11:01:01;;;;;;;24.65;17.55;;;11.90;99.90;;;;;;5096532;28;20220;-88
2022/03/15 11:03:57;;;;;;;25.27;17.70;;;12.20;99.90;;;;;;5083918;28;20386;-87
2022/03/15 11:06:47;;;;;;;21.85;16.15;;;12.30;99.90;;;;;;5077971;28;20257;-87
2022/03/15 11:09:58;;;;;;;25.00;17.40;;;12.40;99.90;;;;;;5072704;28;20217;-87
2022/03/15 11:12:56;;;;;;;31.05;17.75;;;12.60;99.90;;;;;;5080306;28;20215;-87
2022/03/15 11:15:48;;;;;;;26.42;16.42;;;12.50;99.90;;;;;;5081554;28;20570;-87
2022/03/15 11:18:39;;;;;;;23.30;17.55;;;12.30;99.90;;;;;;5085192;28;20216;-86
2022/03/15 11:21:32;;;;;;;24.98;17.63;;;12.30;99.90;;;;;;5073770;28;20492;-86
2022/03/15 11:24:26;;;;;;;26.60;17.23;;;12.50;99.90;;;;;;5086285;28;20219;-87
2022/03/15 11:27:17;;;;;;;24.45;17.48;;;12.70;99.90;;;;;;5098123;28;20388;-87
2022/03/15 11:30:08;;;;;;;22.02;16.85;;;12.70;99.40;;;;;;5072318;28;20250;-86
2022/03/15 11:32:58;;;;;;;29.08;17.70;;;12.60;99.90;;;;;;5091281;28;20224;-87
2022/03/15 11:35:50;;;;;;;25.55;17.92;;;12.60;99.90;;;;;;5086753;28;20281;-86
2022/03/15 11:38:42;;;;;;;29.55;18.65;;;12.40;99.90;;;;;;5078709;28;20227;-86
2022/03/15 11:41:37;;;;;;;26.92;18.13;;;12.50;99.90;;;;;;5092769;28;20211;-85
2022/03/15 11:44:38;;;;;;;25.50;18.88;;;12.40;99.90;;;;;;5084096;28;20219;-87
2022/03/15 11:47:41;;;;;;;24.23;16.88;;;12.30;99.90;;;;;;5084963;28;20387;-86
2022/03/15 11:50:39;;;;;;;25.48;18.67;;;12.30;99.90;;;;;;5082629;28;20756;-88
2022/03/15 11:53:45;;;;;;;26.38;18.42;;;12.30;99.90;;;;;;5089696;28;20241;-86
2022/03/15 11:56:40;;;;;;;25.83;18.50;;;12.40;99.90;;;;;;5094633;28;20208;-86
2022/03/15 11:59:48;;;;;;;26.38;17.42;;;12.30;99.90;;;;;;5086483;28;20262;-86
2022/03/15 12:02:39;;;;;;;25.48;17.88;;;12.30;99.90;;;;;;5122810;27;20207;-87
2022/03/15 12:05:31;;;;;;;24.55;16.88;;;12.20;99.90;;;;;;5099953;28;20203;-86
2022/03/15 12:08:22;;;;;;;23.95;17.92;;;12.20;99.90;;;;;;5096898;28;20292;-87
2022/03/15 12:11:11;;;;;;;23.83;16.95;;;12.10;99.90;;;;;;5100453;28;20230;-88
2022/03/15 12:14:12;;;;;;;28.23;17.05;;;12.10;99.90;;;;;;5087204;28;20294;-85
2022/03/15 12:17:04;;;;;;;23.45;16.23;;;12.00;99.90;;;;;;5084745;28;20215;-86
2022/03/15 12:19:53;;;;;;;21.23;16.08;;;12.00;99.90;;;;;;5082173;28;20287;-85
2022/03/15 12:22:43;;;;;;;20.70;15.82;;;12.20;99.90;;;;;;5072871;28;20224;-87
2022/03/15 12:25:37;;;;;;;21.48;16.27;;;12.20;99.90;;;;;;5069211;28;20212;-85
2022/03/15 12:28:30;;;;;;;22.20;16.65;;;12.20;99.90;;;;;;5076129;28;20280;-87
2022/03/15 12:31:20;;;;;;;25.05;17.23;;;12.10;99.90;;;;;;5066823;28;20224;-87
2022/03/15 12:34:12;;;;;;;20.88;16.42;;;12.20;99.90;;;;;;5065008;28;20217;-86
2022/03/15 12:37:02;;;;;;;24.65;17.25;;;12.10;99.90;;;;;;5064440;28;20572;-86
2022/03/15 12:39:55;;;;;;;22.42;17.33;;;12.00;99.90;;;;;;5069634;28;20387;-85
2022/03/15 12:42:53;;;;;;;25.45;18.23;;;12.10;99.90;;;;;;5072076;28;20232;-86
2022/03/15 12:45:46;;;;;;;22.77;15.23;;;12.10;99.90;;;;;;5074576;28;20259;-86
2022/03/15 12:48:37;;;;;;;23.08;15.73;;;11.90;99.90;;;;;;5065901;28;20229;-85
2022/03/15 12:51:37;;;;;;;20.23;16.35;;;11.80;99.90;;;;;;5090591;28;20231;-85
2022/03/15 12:54:27;;;;;;;21.48;16.77;;;11.80;99.90;;;;;;5052160;28;20220;-87
2022/03/15 12:57:17;;;;;;;24.63;16.58;;;11.80;99.90;;;;;;5065892;28;20285;-86
2022/03/15 13:00:07;;;;;;;23.50;17.17;;;11.80;99.90;;;;;;5064669;28;20230;-87
2022/03/15 13:02:59;;;;;;;24.75;17.50;;;11.90;99.90;;;;;;5069546;28;20247;-87
2022/03/15 13:05:49;;;;;;;30.80;17.77;;;11.80;99.90;;;;;;5072234;28;20235;-85
2022/03/15 13:08:40;;;;;;;25.38;17.95;;;11.70;99.90;;;;;;5059370;28;20890;-87
2022/03/15 13:11:30;;;;;;;21.67;17.50;;;11.80;99.90;;;;;;5073574;28;20228;-86
2022/03/15 13:14:23;;;;;;;25.25;18.85;;;11.80;99.90;;;;;;5057570;28;20226;-86
2022/03/15 13:17:18;;;;;;;26.40;18.02;;;12.00;99.90;;;;;;5056708;28;20363;-86
2022/03/15 13:20:08;;;;;;;22.40;18.42;;;11.90;99.90;;;;;;5056045;28;20235;-86
2022/03/15 13:23:01;;;;;;;28.70;18.98;;;11.90;99.90;;;;;;5058475;28;20299;-86
2022/03/15 13:25:54;;;;;;;23.15;18.00;;;12.00;99.90;;;;;;5070900;28;20220;-86
2022/03/15 13:28:47;;;;;;;25.65;17.25;;;11.90;99.90;;;;;;5057080;28;20220;-85
2022/03/15 13:31:38;;;;;;;25.25;17.60;;;11.90;99.90;;;;;;5059979;28;20216;-85
2022/03/15 13:34:30;;;;;;;22.38;17.52;;;11.90;99.90;;;;;;5055737;28;20228;-85
2022/03/15 13:37:22;;;;;;;22.42;16.58;;;12.00;99.90;;;;;;5059919;28;20224;-85
2022/03/15 13:40:15;;;;;;;24.27;17.45;;;11.90;99.90;;;;;;5056973;28;20228;-85
2022/03/15 13:43:08;;;;;;;24.50;17.58;;;12.00;99.90;;;;;;5056102;28;20220;-85
2022/03/15 13:45:59;;;;;;;23.10;17.90;;;12.00;99.90;;;;;;5059710;28;20587;-85
2022/03/15 13:48:51;;;;;;;25.00;19.02;;;12.00;99.90;;;;;;5059804;28;20228;-84
2022/03/15 13:51:40;;;;;;;22.15;17.85;;;12.00;99.90;;;;;;5073361;28;20216;-86
2022/03/15 13:54:29;;;;;;;24.00;18.45;;;12.10;99.90;;;;;;5054159;28;20227;-85
2022/03/15 13:57:26;;;;;;;25.10;18.80;;;12.00;99.90;;;;;;5052302;28;20231;-85
2022/03/15 14:00:20;;;;;;;23.88;17.63;;;12.00;99.90;;;;;;5057264;28;20236;-85
2022/03/15 14:03:15;;;;;;;22.98;17.80;;;12.10;99.90;;;;;;5059678;28;20301;-84
2022/03/15 14:06:06;;;;;;;26.95;19.15;;;12.10;99.90;;;;;;5052493;28;20309;-84
2022/03/15 14:08:55;;;;;;;23.58;18.55;;;12.10;99.90;;;;;;5056260;28;20224;-84
2022/03/15 14:11:46;;;;;;;27.13;18.42;;;12.00;99.90;;;;;;5049991;28;20220;-86
2022/03/15 14:14:40;;;;;;;24.77;18.98;;;12.00;99.90;;;;;;5053772;28;20695;-86
2022/03/15 14:17:47;;;;;;;26.30;19.08;;;12.00;99.90;;;;;;5063030;28;20278;-85
2022/03/15 14:20:41;;;;;;;25.25;19.40;;;12.10;99.90;;;;;;5055415;28;20224;-82
2022/03/15 14:23:31;;;;;;;21.95;17.90;;;11.90;99.90;;;;;;5054810;28;20258;-86
2022/03/15 14:26:27;;;;;;;23.60;17.77;;;11.90;99.90;;;;;;5053444;28;20223;-84
2022/03/15 14:29:20;;;;;;;24.35;18.02;;;11.80;99.90;;;;;;5065230;28;20741;-85
2022/03/15 14:32:12;;;;;;;29.00;18.15;;;11.80;99.90;;;;;;5053510;28;20231;-84
2022/03/15 14:35:08;;;;;;;24.20;18.30;;;11.90;99.90;;;;;;5062655;28;20220;-83